Cold Springs, Nevada
Current Conditions -  °F | °C
As of 12:15 PM on Friday 19 Dec 2014 (Local Time) from KRTS Reporting Station
Few Clouds Few Clouds  
Wind Chill: 33°   Ceiling: Unl
Heat Index: 41°   Visibility: 10mi
Dew Point: 32°   Wind: 14mph
Humidity: 70%   Direction: 250°WSW
Pressure: 30.11"   Gusts: 24mph
Location:  39.7378°N, 119.889°W
Report Text: KRTS 192015Z AUTO 25012G21KT 10SM FEW034 05/00 A3011 RMK AO2
Loading
Personal Weather Stations






























Interactive Weather Map New forecast layout! Learn more

10-Day Weather Forecast

Advertisements
Track Severe Weather on mobile